createdAt,value
2018-01-30T00:00:40.448Z,7.64
2018-01-30T00:01:40.171Z,7.62
2018-01-30T00:02:40.117Z,7.66
2018-01-30T00:03:40.107Z,7.65
2018-01-30T00:04:40.116Z,7.63
2018-01-30T00:05:40.281Z,7.65
2018-01-30T00:06:41.498Z,7.62
2018-01-30T00:07:40.260Z,7.64
2018-01-30T00:08:40.948Z,7.63
2018-01-30T00:09:40.761Z,7.64
2018-01-30T00:10:40.335Z,7.65
2018-01-30T00:11:40.512Z,7.64
2018-01-30T00:12:40.953Z,7.64
2018-01-30T00:13:40.129Z,7.62
2018-01-30T00:14:40.281Z,7.68
2018-01-30T00:15:39.960Z,7.66
2018-01-30T00:16:40.731Z,7.7
2018-01-30T00:17:40.513Z,7.72
2018-01-30T00:18:40.217Z,7.7
2018-01-30T00:19:40.389Z,7.76
2018-01-30T00:20:40.266Z,7.75
2018-01-30T00:21:40.923Z,7.75
2018-01-30T00:22:40.214Z,7.75
2018-01-30T00:23:40.166Z,7.78
2018-01-30T00:24:40.269Z,7.79
2018-01-30T00:25:40.956Z,7.75
2018-01-30T00:26:40.846Z,7.71
2018-01-30T00:27:40.211Z,7.74
2018-01-30T00:28:39.845Z,7.73
2018-01-30T00:29:39.900Z,7.74
2018-01-30T00:30:39.990Z,7.71
2018-01-30T00:31:40.268Z,7.71
2018-01-30T00:32:40.104Z,7.71
2018-01-30T00:33:40.391Z,7.68
2018-01-30T00:34:40.253Z,7.7
2018-01-30T00:35:40.331Z,7.69
2018-01-30T00:36:40.187Z,7.66
2018-01-30T00:37:40.345Z,7.69
2018-01-30T00:38:40.007Z,7.69
2018-01-30T00:39:40.380Z,7.71
2018-01-30T00:40:40.261Z,7.68
2018-01-30T00:41:40.200Z,7.7
2018-01-30T00:42:40.112Z,7.68
2018-01-30T00:43:40.238Z,7.71
2018-01-30T00:44:40.152Z,7.69
2018-01-30T00:45:40.200Z,7.7
2018-01-30T00:46:40.004Z,7.67
2018-01-30T00:47:39.997Z,7.68
2018-01-30T00:48:40.371Z,7.67
2018-01-30T00:49:40.378Z,7.66
2018-01-30T00:50:40.395Z,7.69
2018-01-30T00:51:39.869Z,7.68
2018-01-30T00:52:40.581Z,7.68
2018-01-30T00:53:39.967Z,7.68
2018-01-30T00:54:40.153Z,7.66
2018-01-30T00:55:40.045Z,7.65
2018-01-30T00:56:40.142Z,7.66
2018-01-30T00:57:40.240Z,7.67
2018-01-30T00:58:40.287Z,7.66
2018-01-30T00:59:40.115Z,7.63
2018-01-30T01:00:40.615Z,7.64
2018-01-30T01:01:40.721Z,7.65
2018-01-30T01:02:40.049Z,7.63
2018-01-30T01:03:40.021Z,7.66
2018-01-30T01:04:39.856Z,7.66
2018-01-30T01:05:40.365Z,7.67
2018-01-30T01:06:40.333Z,7.67
2018-01-30T01:07:40.231Z,7.69
2018-01-30T01:08:39.978Z,7.68
2018-01-30T01:09:40.076Z,7.68
2018-01-30T01:10:40.323Z,7.66
2018-01-30T01:11:40.400Z,7.68
2018-01-30T01:12:40.492Z,7.64
2018-01-30T01:13:40.537Z,7.67
2018-01-30T01:14:40.951Z,7.64
2018-01-30T01:15:40.277Z,7.66
2018-01-30T01:16:40.747Z,7.66
2018-01-30T01:17:40.168Z,7.66
2018-01-30T01:18:40.483Z,7.67
2018-01-30T01:19:40.142Z,7.69
2018-01-30T01:20:40.252Z,7.7
2018-01-30T01:21:39.953Z,7.67
2018-01-30T01:22:40.370Z,7.71
2018-01-30T01:23:40.635Z,7.68
2018-01-30T01:24:41.247Z,7.68
2018-01-30T01:25:40.401Z,7.67
2018-01-30T01:26:40.271Z,7.69
2018-01-30T01:27:40.144Z,7.67
2018-01-30T01:28:40.879Z,7.67
2018-01-30T01:29:40.555Z,7.7
2018-01-30T01:30:40.390Z,7.69
2018-01-30T01:31:40.451Z,7.68
2018-01-30T01:32:40.137Z,7.72
2018-01-30T01:33:41.084Z,7.68
2018-01-30T01:34:41.226Z,7.7
2018-01-30T01:35:41.308Z,7.69
2018-01-30T01:36:40.220Z,7.69
2018-01-30T01:37:40.288Z,7.71
2018-01-30T01:38:40.307Z,7.71
2018-01-30T01:39:41.047Z,7.71
2018-01-30T01:40:40.105Z,7.71
2018-01-30T01:41:41.847Z,7.73
2018-01-30T01:42:40.481Z,7.7
2018-01-30T01:43:41.061Z,7.76
2018-01-30T01:44:40.180Z,7.72
2018-01-30T01:45:40.276Z,7.72
2018-01-30T01:46:40.399Z,7.8
2018-01-30T01:47:41.144Z,7.79
2018-01-30T01:48:40.063Z,7.75
2018-01-30T01:49:41.204Z,7.77
2018-01-30T01:50:40.178Z,7.83
2018-01-30T01:51:40.451Z,7.84
2018-01-30T01:52:40.399Z,7.9
2018-01-30T01:53:40.307Z,7.9
2018-01-30T01:54:40.549Z,7.93
2018-01-30T01:55:40.360Z,7.96
2018-01-30T01:56:40.766Z,7.94
2018-01-30T01:57:40.057Z,7.97
2018-01-30T01:58:41.245Z,7.92
2018-01-30T01:59:40.218Z,7.99
2018-01-30T02:00:40.275Z,7.97
2018-01-30T02:01:40.420Z,7.95
2018-01-30T02:02:40.169Z,7.92
2018-01-30T02:03:40.994Z,7.93
2018-01-30T02:04:40.208Z,7.89
2018-01-30T02:05:41.054Z,7.87
2018-01-30T02:06:40.911Z,7.81
2018-01-30T02:07:40.122Z,7.81
2018-01-30T02:08:40.233Z,7.78
2018-01-30T02:09:40.010Z,7.74
2018-01-30T02:10:40.212Z,7.67
2018-01-30T02:11:40.494Z,7.67
2018-01-30T02:12:40.308Z,7.68
2018-01-30T02:13:40.775Z,7.71
2018-01-30T02:14:40.438Z,7.67
2018-01-30T02:15:40.726Z,7.67
2018-01-30T02:16:40.613Z,7.7
2018-01-30T02:17:40.304Z,7.74
2018-01-30T02:18:42.196Z,7.76
2018-01-30T02:19:41.021Z,7.79
2018-01-30T02:20:40.541Z,7.8
2018-01-30T02:21:40.424Z,7.77
2018-01-30T02:22:40.629Z,7.78
2018-01-30T02:23:41.310Z,7.76
2018-01-30T02:24:40.475Z,7.75
2018-01-30T02:25:41.294Z,7.72
2018-01-30T02:26:40.452Z,7.7
2018-01-30T02:27:40.156Z,7.67
2018-01-30T02:28:40.555Z,7.67
2018-01-30T02:29:40.378Z,7.72
2018-01-30T02:30:40.554Z,7.69
2018-01-30T02:31:41.359Z,7.71
2018-01-30T02:32:40.601Z,7.75
2018-01-30T02:33:40.209Z,7.73
2018-01-30T02:34:40.637Z,7.71
2018-01-30T02:35:40.300Z,7.77
2018-01-30T02:36:40.635Z,7.81
2018-01-30T02:37:40.246Z,7.75
2018-01-30T02:38:40.744Z,7.72
2018-01-30T02:39:40.514Z,7.75
2018-01-30T02:40:40.369Z,7.73
2018-01-30T02:41:40.388Z,7.76
2018-01-30T02:42:40.595Z,7.79
2018-01-30T02:43:41.062Z,7.81
2018-01-30T02:44:40.245Z,7.71
2018-01-30T02:45:40.433Z,7.76
2018-01-30T02:46:40.376Z,7.81
2018-01-30T02:47:40.517Z,7.79
2018-01-30T02:48:40.318Z,7.77
2018-01-30T02:49:41.052Z,7.77
2018-01-30T02:50:40.570Z,7.76
2018-01-30T02:51:41.100Z,7.75
2018-01-30T02:52:40.312Z,7.79
2018-01-30T02:53:41.146Z,7.83
2018-01-30T02:54:41.430Z,7.8
2018-01-30T02:55:40.285Z,7.82
2018-01-30T02:56:40.635Z,7.76
2018-01-30T02:57:40.312Z,7.8
2018-01-30T02:58:40.547Z,7.82
2018-01-30T02:59:40.220Z,7.8
2018-01-30T03:00:40.116Z,7.78
2018-01-30T03:01:40.444Z,7.8
2018-01-30T03:02:41.063Z,7.81
2018-01-30T03:03:40.478Z,7.76
2018-01-30T03:04:40.388Z,7.84
2018-01-30T03:05:40.516Z,7.76
2018-01-30T03:06:40.293Z,7.78
2018-01-30T03:07:39.506Z,7.79
2018-01-30T03:08:39.567Z,7.77
2018-01-30T03:09:39.399Z,7.76
2018-01-30T03:10:39.407Z,7.73
2018-01-30T03:11:39.318Z,7.76
2018-01-30T03:12:39.709Z,7.75
2018-01-30T03:13:39.509Z,7.74
2018-01-30T03:14:39.700Z,7.7
2018-01-30T03:15:39.687Z,7.67
2018-01-30T03:16:39.592Z,7.56
2018-01-30T03:17:40.049Z,7.52
2018-01-30T03:18:40.048Z,7.48
2018-01-30T03:19:39.507Z,7.55
2018-01-30T03:20:40.086Z,7.51
2018-01-30T03:21:39.523Z,7.41
2018-01-30T03:22:39.277Z,7.4
2018-01-30T03:23:39.496Z,7.4
2018-01-30T03:24:39.603Z,7.4
2018-01-30T03:25:39.751Z,7.35
2018-01-30T03:26:39.203Z,7.28
2018-01-30T03:27:39.525Z,7.04
2018-01-30T03:28:39.483Z,6.68
2018-01-30T03:29:39.913Z,6.76
2018-01-30T03:30:39.238Z,6.52
2018-01-30T03:31:39.600Z,6.43
2018-01-30T03:32:39.061Z,6.4
2018-01-30T03:33:39.242Z,6.49
2018-01-30T03:34:39.133Z,6.49
2018-01-30T03:35:39.187Z,6.28
2018-01-30T03:36:39.128Z,6.05
2018-01-30T03:37:39.282Z,6.04
2018-01-30T03:38:39.144Z,6.19
2018-01-30T03:39:39.377Z,6.21
2018-01-30T03:40:39.349Z,6.11
2018-01-30T03:41:39.241Z,5.97
2018-01-30T03:42:39.081Z,6.14
2018-01-30T03:43:39.190Z,6.07
2018-01-30T03:44:39.197Z,6.12
2018-01-30T03:45:39.200Z,5.83
2018-01-30T03:46:39.260Z,5.83
2018-01-30T03:47:39.151Z,5.96
2018-01-30T03:48:39.273Z,5.92
2018-01-30T03:49:39.481Z,5.95
2018-01-30T03:50:39.158Z,5.93
2018-01-30T03:51:39.184Z,5.83
2018-01-30T03:52:39.204Z,5.83
2018-01-30T03:53:39.089Z,5.82
2018-01-30T03:54:39.182Z,5.78
2018-01-30T03:55:38.959Z,5.79
2018-01-30T03:56:39.309Z,5.89
2018-01-30T03:57:39.295Z,5.88
2018-01-30T03:58:39.326Z,5.91
2018-01-30T03:59:39.164Z,5.84
2018-01-30T04:00:39.282Z,6.03
2018-01-30T04:01:39.116Z,5.76
2018-01-30T04:02:39.303Z,5.83
2018-01-30T04:03:39.320Z,5.76
2018-01-30T04:04:39.289Z,5.86
2018-01-30T04:05:39.177Z,5.8
2018-01-30T04:06:39.171Z,5.71
2018-01-30T04:07:39.204Z,5.77
2018-01-30T04:08:39.368Z,5.8
2018-01-30T04:09:39.197Z,5.88
2018-01-30T04:10:39.254Z,5.86
2018-01-30T04:11:40.072Z,5.68
2018-01-30T04:12:39.382Z,5.67
2018-01-30T04:13:39.320Z,5.72
2018-01-30T04:14:39.463Z,5.74
2018-01-30T04:15:39.222Z,5.74
2018-01-30T04:16:39.167Z,5.84
2018-01-30T04:17:39.376Z,5.86
2018-01-30T04:18:39.349Z,5.84
2018-01-30T04:19:39.109Z,5.74
2018-01-30T04:20:39.322Z,5.84
2018-01-30T04:21:39.356Z,5.76
2018-01-30T04:22:39.138Z,5.7
2018-01-30T04:23:39.336Z,5.56
2018-01-30T04:24:39.173Z,5.63
2018-01-30T04:25:39.117Z,5.71
2018-01-30T04:26:39.205Z,5.82
2018-01-30T04:27:39.376Z,5.78
2018-01-30T04:28:39.350Z,5.75
2018-01-30T04:29:39.398Z,5.81
2018-01-30T04:30:39.363Z,5.84
2018-01-30T04:31:39.390Z,5.66
2018-01-30T04:32:39.374Z,5.85
2018-01-30T04:33:39.143Z,5.76
2018-01-30T04:34:39.355Z,5.61
2018-01-30T04:35:39.159Z,5.67
2018-01-30T04:36:39.127Z,5.65
2018-01-30T04:37:39.403Z,5.56
2018-01-30T04:38:39.152Z,5.49
2018-01-30T04:39:39.389Z,5.6
2018-01-30T04:40:39.220Z,5.63
2018-01-30T04:41:39.292Z,5.69
2018-01-30T04:42:39.528Z,5.69
2018-01-30T04:43:39.513Z,5.76
2018-01-30T04:44:39.479Z,5.77
2018-01-30T04:45:39.216Z,5.82
2018-01-30T04:46:39.428Z,5.63
2018-01-30T04:47:39.260Z,5.73
2018-01-30T04:48:39.210Z,5.8
2018-01-30T04:49:39.189Z,5.72
2018-01-30T04:50:39.527Z,5.77
2018-01-30T04:51:39.551Z,5.8
2018-01-30T04:52:39.214Z,5.75
2018-01-30T04:53:39.191Z,5.81
2018-01-30T04:54:39.153Z,5.75
2018-01-30T04:55:39.203Z,5.78
2018-01-30T04:56:39.411Z,5.55
2018-01-30T04:57:39.417Z,5.45
2018-01-30T04:58:39.385Z,5.44
2018-01-30T04:59:39.383Z,5.5
2018-01-30T05:00:39.367Z,5.53
2018-01-30T05:01:39.294Z,5.5
2018-01-30T05:02:39.160Z,5.39
2018-01-30T05:03:39.144Z,5.48
2018-01-30T05:04:39.450Z,5.45
2018-01-30T05:05:39.262Z,5.42
2018-01-30T05:06:39.403Z,5.5
2018-01-30T05:07:39.472Z,5.25
2018-01-30T05:08:39.238Z,5.26
2018-01-30T05:09:40.326Z,5.31
2018-01-30T05:10:39.478Z,5.3
2018-01-30T05:11:39.488Z,5.39
2018-01-30T05:12:39.325Z,5.35
2018-01-30T05:13:39.275Z,5.39
2018-01-30T05:14:39.385Z,5.42
2018-01-30T05:15:39.860Z,5.38
2018-01-30T05:16:39.393Z,5.35
2018-01-30T05:17:39.336Z,5.39
2018-01-30T05:18:39.388Z,5.4
2018-01-30T05:19:39.359Z,5.4
2018-01-30T05:20:39.285Z,5.41
2018-01-30T05:21:39.374Z,5.4
2018-01-30T05:22:39.320Z,5.4
2018-01-30T05:23:39.456Z,5.41
2018-01-30T05:24:39.145Z,5.42
2018-01-30T05:25:39.460Z,5.43
2018-01-30T05:26:39.378Z,5.4
2018-01-30T05:27:39.256Z,5.41
2018-01-30T05:28:39.492Z,5.41
2018-01-30T05:29:39.440Z,5.39
2018-01-30T05:30:39.400Z,5.39
2018-01-30T05:31:39.516Z,5.39
2018-01-30T05:32:39.394Z,5.36
2018-01-30T05:33:39.391Z,5.36
2018-01-30T05:34:39.363Z,5.33
2018-01-30T05:35:39.515Z,5.33
2018-01-30T05:36:39.204Z,5.33
2018-01-30T05:39:50.866Z,5.31
2018-01-30T05:40:39.786Z,5.29
2018-01-30T05:41:39.727Z,5.26
2018-01-30T05:42:39.894Z,5.24
2018-01-30T05:43:40.022Z,5.24
2018-01-30T05:44:39.837Z,5.21
2018-01-30T05:45:40.053Z,5.18
2018-01-30T05:46:39.783Z,5.21
2018-01-30T05:47:39.788Z,5.2
2018-01-30T05:48:39.847Z,5.19
2018-01-30T05:49:39.986Z,5.14
2018-01-30T05:50:39.837Z,5.15
2018-01-30T05:51:39.894Z,5.08
2018-01-30T05:52:39.870Z,5.02
2018-01-30T05:53:39.994Z,5
2018-01-30T05:54:40.014Z,5.02
2018-01-30T05:55:39.822Z,5.01
2018-01-30T05:56:39.932Z,5.05
2018-01-30T05:57:40.080Z,5.05
2018-01-30T05:58:39.983Z,5.04
2018-01-30T05:59:39.768Z,4.97
2018-01-30T06:00:39.917Z,4.99
2018-01-30T06:01:40.087Z,4.97
2018-01-30T06:02:39.835Z,5.02
2018-01-30T06:03:39.831Z,5
2018-01-30T06:04:39.837Z,5.03
2018-01-30T06:05:39.916Z,4.99
2018-01-30T06:06:39.889Z,5
2018-01-30T06:08:40.024Z,4.98
2018-01-30T06:09:40.218Z,4.93
2018-01-30T06:10:40.077Z,4.97
2018-01-30T06:11:40.071Z,5
2018-01-30T06:12:40.160Z,4.96
2018-01-30T06:13:40.036Z,4.96
2018-01-30T06:14:40.112Z,4.94
2018-01-30T06:15:39.988Z,4.94
2018-01-30T06:16:39.882Z,4.86
2018-01-30T06:17:39.864Z,4.89
2018-01-30T06:18:39.938Z,4.88
2018-01-30T06:19:39.838Z,4.86
2018-01-30T06:20:40.005Z,4.86
2018-01-30T06:21:39.935Z,4.83
2018-01-30T06:22:39.909Z,4.86
2018-01-30T06:23:40.000Z,4.9
2018-01-30T06:24:39.922Z,4.86
2018-01-30T06:25:39.838Z,4.85
2018-01-30T06:26:40.052Z,4.85
2018-01-30T06:27:40.034Z,4.83
2018-01-30T06:28:39.978Z,4.77
2018-01-30T06:29:39.950Z,4.78
2018-01-30T06:30:40.071Z,4.79
2018-01-30T06:31:40.014Z,4.77
2018-01-30T06:32:39.782Z,4.72
2018-01-30T06:33:39.831Z,4.72
2018-01-30T06:34:39.968Z,4.74
2018-01-30T06:35:40.006Z,4.72
2018-01-30T06:36:40.059Z,4.71
2018-01-30T06:37:40.144Z,4.72
2018-01-30T06:38:39.814Z,4.68
2018-01-30T06:39:39.816Z,4.68
2018-01-30T06:40:40.317Z,4.68
2018-01-30T06:41:40.067Z,4.64
2018-01-30T06:42:40.032Z,4.62
2018-01-30T06:43:40.056Z,4.62
2018-01-30T06:44:40.090Z,4.56
2018-01-30T06:45:40.181Z,4.56
2018-01-30T06:46:39.921Z,4.56
2018-01-30T06:47:40.028Z,4.57
2018-01-30T06:48:39.793Z,4.53
2018-01-30T06:49:40.047Z,4.55
2018-01-30T06:50:39.929Z,4.57
2018-01-30T06:51:39.863Z,4.56
2018-01-30T06:52:39.882Z,4.55
2018-01-30T06:53:39.936Z,4.56
2018-01-30T06:54:39.973Z,4.5
2018-01-30T06:55:40.075Z,4.49
2018-01-30T06:56:39.938Z,4.48
2018-01-30T06:57:39.794Z,4.47
2018-01-30T06:58:40.115Z,4.42
2018-01-30T06:59:40.021Z,4.37
2018-01-30T07:00:40.227Z,4.36
2018-01-30T07:01:39.986Z,4.32
2018-01-30T07:02:39.905Z,4.31
2018-01-30T07:03:39.794Z,4.32
2018-01-30T07:04:40.068Z,4.33
2018-01-30T07:05:40.011Z,4.29
2018-01-30T07:06:40.102Z,4.3
2018-01-30T07:07:39.830Z,4.28
2018-01-30T07:08:40.028Z,4.29
2018-01-30T07:09:40.138Z,4.3
2018-01-30T07:10:40.076Z,4.32
2018-01-30T07:11:40.023Z,4.3
2018-01-30T07:12:40.041Z,4.3
2018-01-30T07:13:39.979Z,4.27
2018-01-30T07:14:39.905Z,4.28
2018-01-30T07:15:39.923Z,4.28
2018-01-30T07:16:39.873Z,4.27
2018-01-30T07:17:40.110Z,4.34
2018-01-30T07:18:40.059Z,4.32
2018-01-30T07:19:40.095Z,4.33
2018-01-30T07:20:39.898Z,4.29
2018-01-30T07:21:39.937Z,4.26
2018-01-30T07:22:40.057Z,4.25
2018-01-30T07:23:39.888Z,4.25
2018-01-30T07:24:39.954Z,4.21
2018-01-30T07:25:40.029Z,4.19
2018-01-30T07:26:40.085Z,4.16
2018-01-30T07:27:39.952Z,4.12
2018-01-30T07:28:39.896Z,4.08
2018-01-30T07:29:39.894Z,4.13
2018-01-30T07:30:40.021Z,4.07
2018-01-30T07:31:39.932Z,4.11
2018-01-30T07:32:39.996Z,4.13
2018-01-30T07:33:39.900Z,4.1
2018-01-30T07:34:40.191Z,4.11
2018-01-30T07:35:39.955Z,4.12
2018-01-30T07:36:39.933Z,4.12
2018-01-30T07:37:39.904Z,4.12
2018-01-30T07:38:40.067Z,4.14
2018-01-30T07:39:40.035Z,4.07
2018-01-30T07:40:40.005Z,4.1
2018-01-30T07:41:39.924Z,4.11
2018-01-30T07:42:40.122Z,4.17
2018-01-30T07:43:40.141Z,4.17
2018-01-30T07:44:40.058Z,4.19
2018-01-30T07:45:40.021Z,4.2
2018-01-30T07:46:39.888Z,4.18
2018-01-30T07:47:39.965Z,4.19
2018-01-30T07:48:40.099Z,4.21
2018-01-30T07:49:40.082Z,4.21
2018-01-30T07:50:40.027Z,4.18
2018-01-30T07:51:40.696Z,4.21
2018-01-30T07:52:40.089Z,4.2
2018-01-30T07:53:40.080Z,4.2
2018-01-30T07:54:40.240Z,4.17
2018-01-30T07:55:40.108Z,4.16
2018-01-30T07:56:40.216Z,4.17
2018-01-30T07:57:40.244Z,4.22
2018-01-30T07:58:40.110Z,4.26
2018-01-30T07:59:40.211Z,4.28
2018-01-30T08:00:40.092Z,4.32
2018-01-30T08:01:40.173Z,4.31
2018-01-30T08:02:40.156Z,4.31
2018-01-30T08:03:39.924Z,4.3
2018-01-30T08:04:40.043Z,4.26
2018-01-30T08:05:40.138Z,4.32
2018-01-30T08:06:40.182Z,4.32
2018-01-30T08:07:40.323Z,4.34
2018-01-30T08:08:40.011Z,4.33
2018-01-30T08:09:40.165Z,4.31
2018-01-30T08:10:40.210Z,4.34
2018-01-30T08:11:40.172Z,4.33
2018-01-30T08:12:41.010Z,4.37
2018-01-30T08:13:40.028Z,4.38
2018-01-30T08:14:40.143Z,4.4
2018-01-30T08:15:40.248Z,4.39
2018-01-30T08:16:40.225Z,4.41
2018-01-30T08:17:40.031Z,4.47
2018-01-30T08:18:40.179Z,4.51
2018-01-30T08:19:40.298Z,4.5
2018-01-30T08:20:40.157Z,4.5
2018-01-30T08:21:40.107Z,4.51
2018-01-30T08:22:40.249Z,4.52
2018-01-30T08:23:39.909Z,4.51
2018-01-30T08:24:40.146Z,4.61
2018-01-30T08:25:40.136Z,4.6
2018-01-30T08:26:40.745Z,4.6
2018-01-30T08:27:40.392Z,4.62
2018-01-30T08:28:40.145Z,4.61
2018-01-30T08:29:40.056Z,4.66
2018-01-30T08:30:40.152Z,4.68
2018-01-30T08:31:39.917Z,4.74
2018-01-30T08:32:40.225Z,4.7
2018-01-30T08:33:40.203Z,4.75
2018-01-30T08:34:40.143Z,4.72
2018-01-30T08:35:40.127Z,4.77
2018-01-30T08:36:40.121Z,4.83
2018-01-30T08:37:40.188Z,4.85
2018-01-30T08:38:39.910Z,4.79
2018-01-30T08:39:40.008Z,4.69
2018-01-30T08:40:40.192Z,4.67
2018-01-30T08:41:39.870Z,4.75
2018-01-30T08:42:40.211Z,4.76
2018-01-30T08:43:40.074Z,4.8
2018-01-30T08:44:39.882Z,4.81
2018-01-30T08:45:40.005Z,4.83
2018-01-30T08:46:40.101Z,4.76
2018-01-30T08:47:39.924Z,4.76
2018-01-30T08:48:40.027Z,4.71
2018-01-30T08:49:39.974Z,4.79
2018-01-30T08:50:40.012Z,4.76
2018-01-30T08:51:40.043Z,4.8
2018-01-30T08:52:39.952Z,4.81
2018-01-30T08:53:39.892Z,4.83
2018-01-30T08:54:39.972Z,4.89
2018-01-30T08:55:40.178Z,4.89
2018-01-30T08:56:40.173Z,4.89
2018-01-30T08:57:40.164Z,4.92
2018-01-30T08:58:39.833Z,4.89
2018-01-30T08:59:39.840Z,4.79
2018-01-30T09:00:40.052Z,4.81
2018-01-30T09:01:40.286Z,4.81
2018-01-30T09:02:39.925Z,4.85
2018-01-30T09:03:39.919Z,4.86
2018-01-30T09:04:39.997Z,4.88
2018-01-30T09:05:40.074Z,4.88
2018-01-30T09:06:40.203Z,4.89
2018-01-30T09:07:40.576Z,4.95
2018-01-30T09:08:40.197Z,4.97
2018-01-30T09:09:39.951Z,4.94
2018-01-30T09:10:40.096Z,4.96
2018-01-30T09:11:39.174Z,4.94
2018-01-30T09:12:39.043Z,4.65
2018-01-30T09:13:39.481Z,4.81
2018-01-30T09:14:39.044Z,4.9
2018-01-30T09:15:39.051Z,4.84
2018-01-30T09:16:38.918Z,4.78
2018-01-30T09:17:39.123Z,4.76
2018-01-30T09:18:39.284Z,4.72
2018-01-30T09:19:39.096Z,4.68
2018-01-30T09:20:39.101Z,4.74
2018-01-30T09:21:40.022Z,4.67
2018-01-30T09:22:39.192Z,4.68
2018-01-30T09:23:39.136Z,4.71
2018-01-30T09:24:39.136Z,4.76
2018-01-30T09:25:39.274Z,4.74
2018-01-30T09:26:39.230Z,4.78
2018-01-30T09:27:39.133Z,4.84
2018-01-30T09:28:39.323Z,4.85
2018-01-30T09:29:39.255Z,4.86
2018-01-30T09:30:39.050Z,4.97
2018-01-30T09:31:39.096Z,4.97
2018-01-30T09:32:39.978Z,5.01
2018-01-30T09:33:39.398Z,5.01
2018-01-30T09:34:39.171Z,5.03
2018-01-30T09:35:39.054Z,4.85
2018-01-30T09:36:39.264Z,4.88
2018-01-30T09:37:39.272Z,4.94
2018-01-30T09:38:39.088Z,5
2018-01-30T09:39:39.131Z,5.05
2018-01-30T09:40:39.326Z,5.1
2018-01-30T09:41:39.381Z,5.15
2018-01-30T09:42:39.365Z,5.13
2018-01-30T09:43:39.279Z,5.19
2018-01-30T09:44:39.399Z,5.18
2018-01-30T09:45:39.431Z,5.22
2018-01-30T09:46:39.381Z,5.23
2018-01-30T09:47:39.195Z,5.23
2018-01-30T09:48:39.283Z,5.16
2018-01-30T09:49:39.421Z,5.22
2018-01-30T09:50:39.820Z,5.19
2018-01-30T09:51:39.380Z,5.2
2018-01-30T09:52:39.371Z,5.27
2018-01-30T09:53:39.365Z,5.07
2018-01-30T09:54:39.488Z,5.17
2018-01-30T09:55:39.520Z,5.19
2018-01-30T09:56:39.142Z,5.27
2018-01-30T09:57:39.136Z,5.32
2018-01-30T09:58:39.360Z,5.35
2018-01-30T09:59:39.367Z,5.33
2018-01-30T10:00:40.737Z,5.25
2018-01-30T10:01:39.408Z,5.14
2018-01-30T10:02:39.365Z,5.2
2018-01-30T10:03:39.895Z,5.17
2018-01-30T10:04:39.351Z,5.23
2018-01-30T10:05:39.093Z,5.35
2018-01-30T10:06:39.443Z,5.35
2018-01-30T10:07:39.126Z,5.28
2018-01-30T10:08:39.477Z,5.23
2018-01-30T10:09:39.130Z,5.19
2018-01-30T10:10:39.158Z,5.28
2018-01-30T10:11:39.588Z,5.1
2018-01-30T10:12:39.343Z,5.1
2018-01-30T10:13:39.271Z,5.09
2018-01-30T10:14:39.799Z,5.12
2018-01-30T10:15:39.495Z,4.99
2018-01-30T10:16:39.516Z,4.56
2018-01-30T10:17:39.311Z,4.93
2018-01-30T10:18:39.550Z,4.91
2018-01-30T10:19:39.890Z,4.6
2018-01-30T10:20:39.846Z,4.67
2018-01-30T10:21:39.505Z,4.91
2018-01-30T10:22:39.309Z,4.96
2018-01-30T10:23:39.602Z,4.99
2018-01-30T10:24:39.318Z,5.16
2018-01-30T10:25:39.666Z,5.16
2018-01-30T10:26:39.254Z,5.26
2018-01-30T10:27:39.560Z,5.19
2018-01-30T10:28:40.991Z,5.2
2018-01-30T10:29:40.692Z,5.23
2018-01-30T10:30:41.333Z,4.91
2018-01-30T10:31:41.216Z,5.19
2018-01-30T10:32:40.391Z,5.16
2018-01-30T10:33:39.629Z,4.95
2018-01-30T10:34:39.776Z,5.19
2018-01-30T10:35:39.459Z,5.09
2018-01-30T10:36:40.633Z,5.29
2018-01-30T10:37:40.218Z,5.24
2018-01-30T10:38:40.104Z,5.15
2018-01-30T10:39:40.568Z,5.17
2018-01-30T10:40:39.483Z,5.22
2018-01-30T10:41:40.660Z,5.21
2018-01-30T10:42:40.997Z,5.18
2018-01-30T10:43:40.028Z,5.18
2018-01-30T10:44:40.392Z,5.21
2018-01-30T10:45:39.877Z,5.09
2018-01-30T10:46:39.691Z,5.25
2018-01-30T10:47:40.307Z,5.33
2018-01-30T10:48:39.650Z,5.1
2018-01-30T10:49:40.356Z,5.22
2018-01-30T10:50:40.417Z,5.21
2018-01-30T10:51:40.629Z,5
2018-01-30T10:52:40.692Z,5.07
2018-01-30T10:53:39.777Z,5.3
2018-01-30T10:54:39.885Z,5.17
2018-01-30T10:55:40.869Z,5.2
2018-01-30T10:56:41.125Z,5.04
2018-01-30T10:57:41.130Z,4.99
2018-01-30T10:58:40.389Z,4.98
2018-01-30T10:59:39.853Z,4.85
2018-01-30T11:00:39.745Z,4.75
2018-01-30T11:01:41.435Z,4.89
2018-01-30T11:02:39.745Z,5
2018-01-30T11:03:39.845Z,5.05
2018-01-30T11:04:41.092Z,5
2018-01-30T11:05:39.950Z,5.13
2018-01-30T11:06:40.410Z,5.17
2018-01-30T11:07:39.753Z,5.3
2018-01-30T11:08:39.949Z,5.16
2018-01-30T11:09:41.202Z,4.95
2018-01-30T11:10:39.819Z,4.84
2018-01-30T11:11:40.831Z,4.9
2018-01-30T11:12:40.493Z,4.83
2018-01-30T11:13:39.861Z,4.89
2018-01-30T11:14:39.940Z,5.03
2018-01-30T11:15:39.987Z,5
2018-01-30T11:16:41.031Z,4.94
2018-01-30T11:17:39.833Z,4.73
2018-01-30T11:18:40.147Z,4.89
2018-01-30T11:19:39.880Z,5.02
2018-01-30T11:20:39.691Z,5.15
2018-01-30T11:21:39.683Z,4.96
2018-01-30T11:22:40.022Z,4.87
2018-01-30T11:23:39.900Z,4.9
2018-01-30T11:24:39.805Z,4.55
2018-01-30T11:25:39.938Z,4.59
2018-01-30T11:26:39.881Z,4.71
2018-01-30T11:27:39.966Z,4.72
2018-01-30T11:28:39.727Z,4.92
2018-01-30T11:29:39.661Z,4.94
2018-01-30T11:30:39.578Z,5.1
2018-01-30T11:31:39.856Z,5.14
2018-01-30T11:32:39.859Z,5.08
2018-01-30T11:33:39.646Z,5.07
2018-01-30T11:34:39.767Z,5.09
2018-01-30T11:35:39.871Z,5.19
2018-01-30T11:36:39.635Z,5.16
2018-01-30T11:37:39.844Z,5.23
2018-01-30T11:38:39.787Z,5.27
2018-01-30T11:39:39.778Z,5.35
2018-01-30T11:40:39.865Z,5.24
2018-01-30T11:41:40.485Z,5.19
2018-01-30T11:42:39.682Z,5.32
2018-01-30T11:43:39.413Z,5.29
2018-01-30T11:44:39.597Z,5.4
2018-01-30T11:45:39.471Z,5.16
2018-01-30T11:46:39.556Z,5.05
2018-01-30T11:47:39.361Z,5.14
2018-01-30T11:48:39.597Z,5.29
2018-01-30T11:49:39.575Z,5.41
2018-01-30T11:50:39.624Z,5.41
2018-01-30T11:51:39.272Z,5.4
2018-01-30T11:52:39.206Z,5.47
2018-01-30T11:53:39.521Z,5.54
2018-01-30T11:54:39.451Z,5.42
2018-01-30T11:55:39.364Z,5.48
2018-01-30T11:56:39.368Z,5.12
2018-01-30T11:57:39.340Z,5.13
2018-01-30T11:58:39.497Z,5.21
2018-01-30T11:59:39.994Z,5.2
2018-01-30T12:00:39.578Z,5.44
2018-01-30T12:01:39.557Z,5.4
2018-01-30T12:02:39.619Z,5.38
2018-01-30T12:03:39.599Z,5.49
2018-01-30T12:04:39.813Z,5.28
2018-01-30T12:05:39.593Z,5.26
2018-01-30T12:06:39.542Z,5.39
2018-01-30T12:07:39.399Z,5.41
2018-01-30T12:08:39.489Z,5.44
2018-01-30T12:09:39.383Z,5.43
2018-01-30T12:10:39.611Z,5.17
2018-01-30T12:11:39.590Z,5.24
2018-01-30T12:12:39.840Z,5.53
2018-01-30T12:13:39.761Z,5.47
2018-01-30T12:14:39.796Z,5.44
2018-01-30T12:15:39.639Z,5.54
2018-01-30T12:16:39.483Z,5.3
2018-01-30T12:17:39.539Z,5.25
2018-01-30T12:18:39.601Z,5.28
2018-01-30T12:19:39.586Z,5.58
2018-01-30T12:20:39.595Z,5.56
2018-01-30T12:21:39.679Z,5.62
2018-01-30T12:22:39.584Z,5.39
2018-01-30T12:23:39.744Z,5.41
2018-01-30T12:24:39.739Z,5.4
2018-01-30T12:25:39.777Z,5.32
2018-01-30T12:26:39.611Z,5.43
2018-01-30T12:27:39.695Z,5.41
2018-01-30T12:28:39.649Z,5.48
2018-01-30T12:29:39.625Z,5.46
2018-01-30T12:30:39.703Z,5.42
2018-01-30T12:31:39.551Z,5.42
2018-01-30T12:32:39.766Z,5.42
2018-01-30T12:33:40.200Z,5.28
2018-01-30T12:34:39.821Z,5.52
2018-01-30T12:35:39.818Z,5.59
2018-01-30T12:36:40.007Z,5.64
2018-01-30T12:37:40.077Z,5.73
2018-01-30T12:38:39.499Z,5.76
2018-01-30T12:39:39.772Z,5.63
2018-01-30T12:40:39.545Z,5.84
2018-01-30T12:41:39.959Z,5.76
2018-01-30T12:42:40.018Z,5.81
2018-01-30T12:43:39.656Z,5.64
2018-01-30T12:44:39.811Z,5.86
2018-01-30T12:45:39.794Z,5.82
2018-01-30T12:46:39.772Z,5.62
2018-01-30T12:47:39.897Z,5.49
2018-01-30T12:48:39.608Z,5.71
2018-01-30T12:49:39.639Z,5.83
2018-01-30T12:50:39.803Z,5.86
2018-01-30T12:51:39.699Z,5.98
2018-01-30T12:52:39.564Z,5.83
2018-01-30T12:53:39.859Z,5.85
2018-01-30T12:54:39.606Z,5.48
2018-01-30T12:55:39.562Z,5.77
2018-01-30T12:56:39.735Z,5.72
2018-01-30T12:57:39.526Z,5.92
2018-01-30T12:58:39.668Z,5.86
2018-01-30T12:59:39.826Z,5.76
2018-01-30T13:00:39.703Z,5.94
2018-01-30T13:01:40.382Z,5.89
2018-01-30T13:02:39.571Z,5.74
2018-01-30T13:03:39.838Z,5.49
2018-01-30T13:04:39.821Z,5.58
2018-01-30T13:05:39.488Z,5.87
2018-01-30T13:06:39.629Z,5.8
2018-01-30T13:07:39.482Z,5.85
2018-01-30T13:08:39.813Z,5.81
2018-01-30T13:09:39.794Z,5.95
2018-01-30T13:10:39.625Z,5.93
2018-01-30T13:11:39.522Z,5.91
2018-01-30T13:12:39.937Z,6
2018-01-30T13:13:39.904Z,5.87
2018-01-30T13:14:39.694Z,5.61
2018-01-30T13:15:40.019Z,5.49
2018-01-30T13:16:39.956Z,5.5
2018-01-30T13:17:39.939Z,5.57
2018-01-30T13:18:40.149Z,5.66
2018-01-30T13:19:39.894Z,5.8
2018-01-30T13:20:40.040Z,5.95
2018-01-30T13:21:39.836Z,5.97
2018-01-30T13:22:39.985Z,5.86
2018-01-30T13:23:39.876Z,5.87
2018-01-30T13:24:39.946Z,5.97
2018-01-30T13:25:39.926Z,5.9